METAR Data
IDs: Format: Raw Decoded Include TAF

Data at: 1343 UTC 07 Jul 2020

KBNA 071253Z 18006KT 10SM FEW200 27/21 A3002 RMK AO2 SLP157 T02670211
KBNA 071153Z 18004KT 10SM FEW055 FEW200 24/21 A3001 RMK AO2 SLP153 T02440211 10261 20233 51009
KBNA 071053Z 00000KT 10SM FEW035 SCT250 23/21 A3000 RMK AO2 SLP152 T02330206
KBNA 070953Z 00000KT 10SM FEW100 SCT250 24/21 A2999 RMK AO2 SLP147 T02390206
KBNA 070853Z 00000KT 10SM SCT250 24/21 A2998 RMK AO2 SLP144 T02440211 55002
KBNA 070753Z 20003KT 10SM FEW250 24/21 A2997 RMK AO2 SLP140 T02440206
KBNA 070653Z 13007KT 10SM SCT250 24/21 A2998 RMK AO2 TSB14E29 SLP145 T02440211
KBNA 070635Z 00000KT 10SM FEW065 SCT250 26/21 A2999 RMK AO2 TSB14E29 T02610206
KBNA 070614Z COR 00000KT 10SM TS FEW065CB SCT250 26/21 A2999 RMK AO2 LTG DSNT N TSB14 OCNL LTG ICCC TS NE MOV NE T02560211
KBNA 070553Z 28003KT 10SM SCT100 26/21 A2999 RMK AO2 SLP146 T02610211 10306 20250 403330228 58001
KBNA 070453Z 00000KT 10SM BKN090 27/21 A3000 RMK AO2 SLP151 T02670211
KBNA 070353Z 00000KT 10SM SCT070 BKN250 27/22 A3001 RMK AO2 TSE23 SLP154 T02670217
KBNA 070344Z 00000KT 10SM FEW065 BKN250 27/22 A3001 RMK AO2 TSE23 T02720217
KBNA 070329Z 00000KT 10SM VCTS FEW065CB BKN250 26/22 A3000 RMK AO2 LTG DSNT NE AND E TSE23 CB E T02610217
KBNA 070253Z 18003KT 10SM FEW055 BKN200 27/22 A2999 RMK AO2 LTG DSNT NE AND E SLP148 OCNL LTGIC DSNT E AND S AND W CB DSNT E AND S AND W MOV W T02670222 53010
KBNA 070153Z 14004KT 10SM SCT050 SCT140 BKN250 29/22 A2998 RMK AO2 LTG DSNT E AND S SLP145 OCNL LTGIC DSNT E AND S AND W CB DSNT E AND S AND W MOV W T02890217
KBNA 070053Z 06003KT 10SM SCT050 SCT180 BKN250 30/21 A2997 RMK AO2 LTG DSNT E-S SLP140 CB DSNT E AND SE MOV W T03000206
KBNA 062353Z 08003KT 10SM SCT050 SCT180 BKN250 31/21 A2996 RMK AO2 SLP138 T03060211 10333 20306 55003
KBNA 062253Z 07004KT 10SM SCT055 BKN250 31/19 A2996 RMK AO2 LTG DSNT W SLP137 CB DSNT W MOV W T03110194
KBNA 062153Z 07005KT 10SM SCT055 BKN250 33/21 A2996 RMK AO2 SLP138 T03330206
KBNA 062053Z 08005KT 10SM SCT050 BKN250 32/18 A2997 RMK AO2 SLP141 T03170183 58015
KBNA 061953Z 08007KT 10SM FEW045 SCT150 BKN250 33/21 A2999 RMK AO2 SLP147 T03280206
KBNA 061853Z VRB03KT 10SM FEW041 SCT110 SCT200 BKN250 32/21 A3000 RMK AO2 SLP152 T03220211
KBNA 061753Z 21005KT 10SM FEW043 SCT100 BKN250 32/20 A3001 RMK AO2 SLP156 T03220200 10322 20239 58010
KBNA 061653Z 08005KT 10SM FEW025 SCT070 BKN190 BKN250 30/22 A3003 RMK AO2 SLP162 T03000217
KBNA 061553Z 05005KT 10SM FEW065 SCT090 BKN210 BKN250 29/22 A3005 RMK AO2 SLP168 T02940217
KBNA 061453Z 10004KT 10SM FEW065 SCT090 SCT210 BKN250 28/22 A3004 RMK AO2 SLP166 T02780217 50010
KBNA 061353Z 00000KT 10SM FEW060 SCT075 BKN110 BKN250 26/21 A3005 RMK AO2 LTG DSNT NE SLP167 T02610211
KBNA 061253Z 32007KT 10SM FEW010 SCT065 BKN130 BKN250 25/21 A3004 RMK AO2 LTG DSNT N SLP166 T02500206
KBNA 061153Z 00000KT 10SM SCT065 BKN120 BKN250 24/21 A3001 RMK AO2 SLP157 T02440211 10244 20228 53018
KBNA 061053Z 08003KT 10SM FEW065 FEW120 BKN250 23/21 A2999 RMK AO2 SLP148 T02280206
KBNA 060953Z 02005KT 10SM SCT120 23/21 A2998 RMK AO2 SLP147 T02280206
KBNA 060853Z 01005KT 10SM BKN250 23/21 A2996 RMK AO2 SLP137 T02280206 53001
KBNA 060753Z 00000KT 10SM BKN250 23/21 A2995 RMK AO2 SLP136 T02330206
KBNA 060653Z 10003KT 10SM BKN250 24/21 A2995 RMK AO2 SLP133 T02390206
KBNA 060553Z 00000KT 10SM BKN250 23/21 A2996 RMK AO2 SLP136 T02330206 10267 20233 403390228 58009
KBNA 060453Z 18004KT 10SM OVC250 23/21 A2997 RMK AO2 SLP140 T02330206
KBNA 060353Z 10003KT 10SM BKN250 24/20 A2998 RMK AO2 SLP143 T02390200
KBNA 060253Z 06007KT 10SM FEW140 BKN220 25/21 A2998 RMK AO2 SLP146 T02500206 51013
KBNA 060153Z 07005KT 10SM SCT120 BKN220 26/20 A2998 RMK AO2 SLP145 T02560200